首页
METAR-TAF:

METAR-TAF

机场 :

錫永機場

锡永, 瑞士

纬度: 46-13N, 经度: 007-20E, 海拔: 482米

当前天气观测

该预报发布于13分钟前的22:20 UTC
风速11节,风向西,在西转西南西转西北之间变化
温度 5°C
湿度 75%
气压 1015 hPa
能见度10公里或以上
少量云层高于4700英尺

METAR: LSGS 292220Z AUTO 27011KT 240V300 9999 FEW047 05/01 Q1015

时间: 00:33 (22:33 UTC)

预报

该预报发布于8小时和8分钟前的14:25 UTC
预报有效从29日的 15点(UTC)到 29日的 24点(UTC)
风速12节,风向西转西南
能见度10公里或以上
少量云层高于5000英尺
多云层高于10000英尺

TAF: LSGS 291425Z 2915/2924 25012KT 9999 FEW050 BKN100

超过4000个机场的气象观测和天气预报(METAR&TAF报告)。

可查询的气象台以黄色和红色小点在地图上表示。

将鼠标移到小点上方,可查看气象台名称。

然后点击查看天气观测和预报。

如需切换地图:点击带黑十字的绿色按钮放大地图;点击带横线的绿色按钮缩小地图;或者点击绿色箭头查看邻近地区的地图。


METAR-TAF: